Wetterdaten: Woche 07.10.13 - 13.10.13 (KW41)
Datum Zeit Temp. A. Feuchte A. Luftdruck Regen Wind Richtung Taupunkt Windchill Windben
07.10.2013 00:00 10,4 C 82 % 1026,2 hPa 0,0 l/m 0,0 km/h N 7,4 C 10,4 C 0,8 km/h
07.10.2013 01:00 10,4 C 81 % 1026,3 hPa 0,0 l/m 0,0 km/h N 7,3 C 10,4 C 0,8 km/h
07.10.2013 02:00 10,4 C 81 % 1026,5 hPa 0,0 l/m 0,1 km/h N 7,3 C 10,4 C 1,6 km/h
07.10.2013 03:00 10,3 C 81 % 1026,4 hPa 0,0 l/m 0,1 km/h N 7,1 C 10,3 C 1,2 km/h
07.10.2013 04:00 10,2 C 80 % 1026,4 hPa 0,0 l/m 0,2 km/h N 6,9 C 10,2 C 2,8 km/h
07.10.2013 05:00 10,1 C 80 % 1026,6 hPa 0,0 l/m 0,3 km/h N 6,8 C 10,1 C 3,6 km/h
07.10.2013 06:00 9,8 C 80 % 1026,8 hPa 0,0 l/m 0,5 km/h N 6,4 C 9,8 C 4,0 km/h
07.10.2013 07:00 9,6 C 79 % 1027,1 hPa 0,0 l/m 0,6 km/h N 6,1 C 9,6 C 5,2 km/h
07.10.2013 08:00 9,6 C 79 % 1027,7 hPa 0,0 l/m 0,1 km/h N 6,1 C 9,6 C 2,8 km/h
07.10.2013 09:00 9,6 C 79 % 1028,0 hPa 0,0 l/m 0,4 km/h N 6,2 C 9,6 C 4,4 km/h
07.10.2013 10:00 9,8 C 80 % 1028,1 hPa 0,0 l/m 0,2 km/h N 6,5 C 9,8 C 3,6 km/h
07.10.2013 11:00 10,5 C 81 % 1028,2 hPa 0,0 l/m 0,2 km/h N 7,3 C 10,5 C 2,4 km/h
07.10.2013 12:00 10,9 C 83 % 1028,2 hPa 0,0 l/m 0,1 km/h N 8,0 C 10,9 C 2,0 km/h
07.10.2013 13:00 11,6 C 84 % 1027,8 hPa 0,0 l/m 0,2 km/h N 8,9 C 11,6 C 3,6 km/h
07.10.2013 14:00 12,1 C 84 % 1027,4 hPa 0,0 l/m 0,2 km/h N 9,4 C 12,1 C 3,2 km/h
07.10.2013 15:00 12,9 C 81 % 1027,0 hPa 0,0 l/m 0,8 km/h N 9,7 C 12,9 C 6,0 km/h
07.10.2013 16:00 13,1 C 80 % 1026,5 hPa 0,0 l/m 0,4 km/h N 9,8 C 13,1 C 4,0 km/h
07.10.2013 17:00 13,0 C 80 % 1026,4 hPa 0,0 l/m 0,3 km/h N 9,6 C 13,0 C 2,8 km/h
07.10.2013 18:00 11,9 C 80 % 1026,6 hPa 0,0 l/m 0,0 km/h N 8,5 C 11,9 C 0,0 km/h
07.10.2013 19:00 10,2 C 82 % 1027,1 hPa 0,0 l/m 0,0 km/h N 7,2 C 10,2 C 0,0 km/h
07.10.2013 20:00 9,2 C 83 % 1027,2 hPa 0,0 l/m 0,0 km/h N 6,5 C 9,2 C 0,0 km/h
07.10.2013 21:00 8,0 C 84 % 1027,3 hPa 0,0 l/m 0,0 km/h N 5,4 C 8,0 C 0,0 km/h
07.10.2013 22:00 7,0 C 85 % 1027,4 hPa 0,0 l/m 0,0 km/h N 4,6 C 7,0 C 0,0 km/h
07.10.2013 23:00 6,0 C 85 % 1027,1 hPa 0,0 l/m 0,0 km/h N 3,7 C 6,0 C 0,0 km/h
08.10.2013 00:00 5,2 C 85 % 1026,8 hPa 0,0 l/m 0,0 km/h N 2,8 C 5,2 C 0,0 km/h
08.10.2013 01:00 4,7 C 84 % 1026,7 hPa 0,0 l/m 0,0 km/h N 2,2 C 4,7 C 0,0 km/h
08.10.2013 02:00 4,3 C 84 % 1026,6 hPa 0,0 l/m 0,0 km/h N 1,8 C 4,3 C 0,0 km/h
08.10.2013 03:00 4,2 C 83 % 1026,3 hPa 0,0 l/m 0,0 km/h N 1,6 C 4,2 C 0,0 km/h
08.10.2013 04:00 4,3 C 82 % 1026,1 hPa 0,0 l/m 0,0 km/h N 1,5 C 4,3 C 0,4 km/h
08.10.2013 05:00 4,4 C 82 % 1026,1 hPa 0,0 l/m 0,0 km/h N 1,6 C 4,4 C 0,0 km/h
08.10.2013 06:00 4,6 C 81 % 1026,0 hPa 0,0 l/m 0,0 km/h N 1,7 C 4,6 C 0,0 km/h
08.10.2013 07:00 4,6 C 81 % 1026,0 hPa 0,0 l/m 0,0 km/h N 1,6 C 4,6 C 0,0 km/h
08.10.2013 08:00 5,1 C 80 % 1026,3 hPa 0,0 l/m 0,0 km/h N 1,8 C 5,1 C 0,0 km/h
08.10.2013 09:00 8,3 C 76 % 1026,3 hPa 0,0 l/m 0,8 km/h N 4,3 C 8,3 C 3,2 km/h
08.10.2013 10:00 11,3 C 82 % 1026,0 hPa 0,0 l/m 2,0 km/h N 8,3 C 11,3 C 7,2 km/h
08.10.2013 11:00 15,3 C 71 % 1025,4 hPa 0,0 l/m 2,1 km/h N 10,0 C 15,3 C 9,6 km/h
08.10.2013 12:00 18,1 C 52 % 1024,9 hPa 0,0 l/m 5,8 km/h N 7,9 C 17,9 C 19,3 km/h
08.10.2013 13:00 18,5 C 47 % 1024,3 hPa 0,0 l/m 7,1 km/h N 6,8 C 18,2 C 21,3 km/h
08.10.2013 14:00 18,5 C 47 % 1023,7 hPa 0,0 l/m 7,1 km/h N 6,9 C 18,1 C 19,3 km/h
08.10.2013 15:00 18,4 C 51 % 1023,5 hPa 0,0 l/m 5,5 km/h N 7,9 C 18,4 C 17,3 km/h
08.10.2013 16:00 17,8 C 52 % 1023,2 hPa 0,0 l/m 4,0 km/h N 7,9 C 17,8 C 13,3 km/h
08.10.2013 17:00 17,1 C 54 % 1023,2 hPa 0,0 l/m 1,5 km/h N 7,8 C 17,1 C 7,2 km/h
08.10.2013 18:00 15,1 C 60 % 1023,3 hPa 0,0 l/m 0,0 km/h N 7,4 C 15,1 C 0,4 km/h
08.10.2013 19:00 11,8 C 71 % 1023,6 hPa 0,0 l/m 0,0 km/h N 6,7 C 11,8 C 0,4 km/h
08.10.2013 20:00 9,4 C 78 % 1023,6 hPa 0,0 l/m 0,0 km/h N 5,7 C 9,4 C 0,4 km/h
08.10.2013 21:00 8,1 C 82 % 1023,4 hPa 0,0 l/m 0,0 km/h N 5,2 C 8,1 C 0,0 km/h
08.10.2013 22:00 9,3 C 83 % 1023,1 hPa 0,0 l/m 1,8 km/h N 6,6 C 9,3 C 5,2 km/h
08.10.2013 23:00 11,1 C 78 % 1022,6 hPa 0,0 l/m 0,3 km/h N 7,4 C 11,1 C 3,6 km/h
09.10.2013 00:00 9,7 C 80 % 1022,7 hPa 0,0 l/m 0,1 km/h N 6,5 C 9,7 C 1,6 km/h
09.10.2013 01:00 9,5 C 83 % 1022,7 hPa 0,0 l/m 0,3 km/h N 6,8 C 9,5 C 2,0 km/h
09.10.2013 02:00 9,8 C 84 % 1022,4 hPa 0,0 l/m 0,0 km/h N 7,2 C 9,8 C 0,0 km/h
09.10.2013 03:00 9,9 C 84 % 1022,1 hPa 0,0 l/m 0,0 km/h N 7,3 C 9,9 C 0,0 km/h
09.10.2013 04:00 9,9 C 84 % 1021,9 hPa 0,0 l/m 0,0 km/h N 7,3 C 9,9 C 0,0 km/h
09.10.2013 05:00 10,0 C 83 % 1022,0 hPa 0,0 l/m 0,0 km/h N 7,3 C 10,0 C 0,8 km/h
09.10.2013 06:00 10,1 C 83 % 1021,7 hPa 0,0 l/m 0,0 km/h N 7,3 C 10,1 C 0,4 km/h
09.10.2013 07:00 10,3 C 82 % 1021,6 hPa 0,0 l/m 0,0 km/h N 7,4 C 10,3 C 0,0 km/h
09.10.2013 08:00 10,6 C 82 % 1021,8 hPa 0,0 l/m 0,0 km/h N 7,6 C 10,6 C 0,0 km/h
09.10.2013 09:00 11,3 C 81 % 1021,7 hPa 0,0 l/m 0,0 km/h N 8,2 C 11,3 C 0,0 km/h
09.10.2013 10:00 12,2 C 82 % 1021,5 hPa 0,0 l/m 0,2 km/h N 9,3 C 12,2 C 2,0 km/h
09.10.2013 11:00 12,8 C 82 % 1021,3 hPa 0,0 l/m 0,9 km/h N 9,8 C 12,8 C 4,8 km/h
09.10.2013 12:00 14,0 C 80 % 1020,5 hPa 0,0 l/m 0,1 km/h N 10,5 C 14,0 C 1,6 km/h
09.10.2013 13:00 14,8 C 77 % 1019,5 hPa 0,0 l/m 1,4 km/h N 10,7 C 14,8 C 5,6 km/h
09.10.2013 14:00 15,1 C 77 % 1018,7 hPa 0,0 l/m 1,5 km/h N 11,0 C 15,1 C 6,0 km/h
09.10.2013 15:00 15,4 C 77 % 1018,0 hPa 0,0 l/m 1,4 km/h N 11,3 C 15,4 C 6,4 km/h
09.10.2013 16:00 15,5 C 77 % 1017,3 hPa 0,0 l/m 1,6 km/h N 11,3 C 15,5 C 6,8 km/h
09.10.2013 17:00 15,3 C 76 % 1016,8 hPa 0,0 l/m 0,7 km/h N 11,1 C 15,3 C 5,2 km/h
09.10.2013 18:00 14,7 C 77 % 1016,6 hPa 0,0 l/m 0,1 km/h N 10,7 C 14,7 C 1,2 km/h
09.10.2013 19:00 13,7 C 81 % 1016,5 hPa 0,0 l/m 0,0 km/h N 10,4 C 13,7 C 0,0 km/h
09.10.2013 20:00 13,3 C 83 % 1016,2 hPa 0,0 l/m 0,0 km/h N 10,4 C 13,3 C 0,0 km/h
09.10.2013 21:00 13,1 C 83 % 1015,9 hPa 0,0 l/m 0,0 km/h N 10,3 C 13,1 C 0,0 km/h
09.10.2013 22:00 13,0 C 83 % 1015,8 hPa 0,0 l/m 0,0 km/h N 10,1 C 13,0 C 0,0 km/h
09.10.2013 23:00 12,8 C 83 % 1015,2 hPa 0,0 l/m 0,0 km/h N 10,0 C 12,8 C 0,0 km/h
10.10.2013 00:00 12,7 C 83 % 1014,8 hPa 0,0 l/m 0,0 km/h N 9,8 C 12,7 C 0,4 km/h
10.10.2013 01:00 12,6 C 83 % 1014,2 hPa 0,0 l/m 0,0 km/h N 9,8 C 12,6 C 1,6 km/h
10.10.2013 02:00 12,5 C 83 % 1013,6 hPa 0,0 l/m 0,1 km/h N 9,7 C 12,5 C 2,0 km/h
10.10.2013 03:00 12,6 C 84 % 1012,9 hPa 0,0 l/m 0,1 km/h N 9,9 C 12,6 C 2,4 km/h
10.10.2013 04:00 12,5 C 84 % 1012,3 hPa 0,0 l/m 0,1 km/h N 9,9 C 12,5 C 1,2 km/h
10.10.2013 05:00 12,1 C 84 % 1011,8 hPa 0,0 l/m 0,0 km/h N 9,4 C 12,1 C 0,0 km/h
10.10.2013 06:00 11,8 C 83 % 1011,4 hPa 0,0 l/m 0,1 km/h N 9,0 C 11,8 C 0,8 km/h
10.10.2013 07:00 11,8 C 82 % 1010,9 hPa 0,0 l/m 0,0 km/h N 8,8 C 11,8 C 0,0 km/h
10.10.2013 08:00 12,3 C 81 % 1010,5 hPa 0,0 l/m 2,1 km/h N 9,2 C 12,3 C 8,9 km/h
10.10.2013 09:00 13,0 C 84 % 1010,4 hPa 0,0 l/m 2,4 km/h N 10,3 C 13,0 C 8,9 km/h
10.10.2013 10:00 14,7 C 82 % 1009,7 hPa 0,0 l/m 2,7 km/h N 11,6 C 14,7 C 9,6 km/h
10.10.2013 11:00 15,8 C 79 % 1008,8 hPa 0,0 l/m 5,6 km/h N 12,1 C 15,7 C 14,5 km/h
10.10.2013 12:00 16,9 C 75 % 1008,2 hPa 0,0 l/m 7,3 km/h N 12,3 C 16,2 C 21,7 km/h
10.10.2013 13:00 17,0 C 75 % 1007,4 hPa 0,0 l/m 8,3 km/h N 12,4 C 16,1 C 22,5 km/h
10.10.2013 14:00 16,7 C 74 % 1006,7 hPa 0,0 l/m 9,2 km/h N 12,1 C 15,3 C 24,9 km/h
10.10.2013 15:00 16,3 C 74 % 1006,2 hPa 0,0 l/m 11,7 km/h N 11,7 C 13,8 C 27,8 km/h
10.10.2013 16:00 15,8 C 77 % 1006,3 hPa 0,0 l/m 9,6 km/h N 11,8 C 14,1 C 24,9 km/h
10.10.2013 17:00 15,3 C 81 % 1006,3 hPa 0,0 l/m 8,4 km/h N 12,2 C 14,3 C 22,5 km/h
10.10.2013 18:00 15,3 C 82 % 1006,0 hPa 0,0 l/m 5,2 km/h N 12,2 C 15,1 C 15,3 km/h
10.10.2013 19:00 15,3 C 82 % 1006,2 hPa 0,0 l/m 5,8 km/h N 12,3 C 15,2 C 18,1 km/h
10.10.2013 20:00 15,4 C 83 % 1006,4 hPa 0,0 l/m 6,8 km/h N 12,5 C 15,0 C 18,5 km/h
10.10.2013 21:00 14,9 C 82 % 1007,4 hPa 4,2 l/m 5,7 km/h N 11,9 C 14,9 C 18,9 km/h
10.10.2013 22:00 10,7 C 83 % 1009,2 hPa 2,9 l/m 4,6 km/h N 7,9 C 10,7 C 21,7 km/h
10.10.2013 23:00 8,8 C 84 % 1010,3 hPa 0,5 l/m 5,3 km/h N 6,2 C 8,8 C 18,5 km/h
11.10.2013 00:00 7,6 C 84 % 1011,1 hPa 0,5 l/m 5,6 km/h N 5,1 C 7,6 C 22,9 km/h
11.10.2013 01:00 7,3 C 84 % 1011,5 hPa 0,0 l/m 4,8 km/h N 4,8 C 7,3 C 18,9 km/h
11.10.2013 02:00 7,3 C 83 % 1012,2 hPa 0,5 l/m 3,0 km/h N 4,6 C 7,3 C 12,1 km/h
11.10.2013 03:00 7,1 C 84 % 1012,0 hPa 0,8 l/m 0,3 km/h N 4,6 C 7,1 C 5,2 km/h
11.10.2013 04:00 6,9 C 85 % 1012,0 hPa 0,5 l/m 0,0 km/h N 4,5 C 6,9 C 0,8 km/h
11.10.2013 05:00 6,8 C 84 % 1011,8 hPa 0,5 l/m 0,5 km/h N 4,3 C 6,8 C 4,4 km/h
11.10.2013 06:00 6,6 C 83 % 1011,6 hPa 0,0 l/m 0,2 km/h N 3,9 C 6,6 C 2,8 km/h
11.10.2013 07:00 6,7 C 82 % 1011,5 hPa 0,5 l/m 0,1 km/h N 3,9 C 6,7 C 1,6 km/h
11.10.2013 08:00 7,0 C 82 % 1011,6 hPa 0,0 l/m 0,0 km/h N 4,0 C 7,0 C 0,0 km/h
11.10.2013 09:00 7,3 C 81 % 1012,2 hPa 0,0 l/m 0,2 km/h N 4,3 C 7,3 C 1,6 km/h
11.10.2013 10:00 7,9 C 80 % 1012,5 hPa 0,5 l/m 0,0 km/h N 4,8 C 7,9 C 0,8 km/h
11.10.2013 11:00 8,6 C 80 % 1013,0 hPa 0,0 l/m 0,0 km/h N 5,3 C 8,6 C 0,4 km/h
11.10.2013 12:00 9,8 C 79 % 1013,3 hPa 0,0 l/m 0,1 km/h N 6,2 C 9,8 C 1,2 km/h
11.10.2013 13:00 11,3 C 77 % 1013,1 hPa 0,8 l/m 0,0 km/h N 7,5 C 11,3 C 0,4 km/h
11.10.2013 14:00 12,5 C 76 % 1013,4 hPa 0,0 l/m 0,1 km/h N 8,4 C 12,5 C 1,2 km/h
11.10.2013 15:00 12,8 C 77 % 1013,8 hPa 1,8 l/m 1,2 km/h N 8,9 C 12,8 C 5,6 km/h
11.10.2013 16:00 10,6 C 79 % 1014,5 hPa 3,1 l/m 1,7 km/h N 7,1 C 10,6 C 8,1 km/h
11.10.2013 17:00 10,2 C 79 % 1014,7 hPa 1,0 l/m 1,2 km/h N 6,7 C 10,2 C 6,0 km/h
11.10.2013 18:00 9,9 C 78 % 1015,2 hPa 0,0 l/m 0,6 km/h N 6,3 C 9,9 C 3,6 km/h
11.10.2013 19:00 10,7 C 77 % 1016,5 hPa 0,0 l/m 0,5 km/h N 6,8 C 10,7 C 3,6 km/h
11.10.2013 20:00 10,3 C 78 % 1016,7 hPa 0,0 l/m 2,7 km/h N 6,6 C 10,3 C 8,9 km/h
11.10.2013 21:00 9,1 C 79 % 1017,4 hPa 0,0 l/m 2,2 km/h N 5,6 C 9,1 C 7,6 km/h
11.10.2013 22:00 8,7 C 79 % 1018,5 hPa 0,0 l/m 1,0 km/h N 5,2 C 8,7 C 7,2 km/h
11.10.2013 23:00 8,3 C 79 % 1018,3 hPa 0,0 l/m 2,7 km/h N 4,9 C 8,3 C 10,9 km/h
12.10.2013 00:00 8,6 C 79 % 1019,0 hPa 0,0 l/m 0,3 km/h N 5,2 C 8,6 C 2,8 km/h
12.10.2013 01:00 8,4 C 80 % 1019,8 hPa 0,0 l/m 0,4 km/h N 5,2 C 8,4 C 4,4 km/h
12.10.2013 02:00 8,3 C 80 % 1019,6 hPa 0,0 l/m 0,0 km/h N 5,1 C 8,3 C 1,2 km/h
12.10.2013 03:00 8,2 C 81 % 1019,7 hPa 0,0 l/m 0,1 km/h N 5,2 C 8,2 C 1,2 km/h
12.10.2013 04:00 8,4 C 81 % 1019,8 hPa 0,0 l/m 0,0 km/h N 5,4 C 8,4 C 0,4 km/h
12.10.2013 05:00 8,4 C 81 % 1019,6 hPa 0,0 l/m 0,4 km/h N 5,3 C 8,4 C 4,0 km/h
12.10.2013 06:00 8,2 C 81 % 1019,4 hPa 0,0 l/m 1,2 km/h N 5,2 C 8,2 C 6,4 km/h
12.10.2013 07:00 8,3 C 81 % 1018,9 hPa 0,0 l/m 0,7 km/h N 5,1 C 8,3 C 5,6 km/h
12.10.2013 08:00 8,6 C 80 % 1019,2 hPa 0,3 l/m 1,0 km/h N 5,3 C 8,6 C 6,4 km/h
12.10.2013 09:00 9,5 C 80 % 1020,0 hPa 0,0 l/m 0,8 km/h N 6,2 C 9,5 C 5,6 km/h
12.10.2013 10:00 10,4 C 80 % 1019,7 hPa 0,0 l/m 1,0 km/h N 7,1 C 10,4 C 8,8 km/h
12.10.2013 11:00 13,2 C 82 % 1018,8 hPa 0,0 l/m 2,5 km/h N 10,1 C 13,2 C 10,9 km/h
12.10.2013 12:00 15,9 C 73 % 1018,2 hPa 0,0 l/m 4,8 km/h N 11,1 C 15,9 C 16,9 km/h
12.10.2013 13:00 17,0 C 70 % 1017,9 hPa 0,0 l/m 6,8 km/h N 11,5 C 16,8 C 20,1 km/h
12.10.2013 14:00 17,3 C 69 % 1017,7 hPa 0,0 l/m 6,3 km/h N 11,6 C 17,1 C 19,7 km/h
12.10.2013 15:00 16,7 C 71 % 1017,3 hPa 0,0 l/m 7,1 km/h N 11,3 C 16,3 C 19,7 km/h
12.10.2013 16:00 16,5 C 71 % 1017,4 hPa 0,0 l/m 8,6 km/h N 11,3 C 15,4 C 22,1 km/h
12.10.2013 17:00 16,3 C 74 % 1017,7 hPa 0,0 l/m 7,4 km/h N 11,6 C 15,8 C 18,5 km/h
12.10.2013 18:00 15,5 C 79 % 1017,6 hPa 0,0 l/m 4,6 km/h N 11,8 C 15,5 C 12,9 km/h
12.10.2013 19:00 14,5 C 80 % 1017,6 hPa 0,0 l/m 3,4 km/h N 11,1 C 14,5 C 10,5 km/h
12.10.2013 20:00 13,5 C 81 % 1018,4 hPa 0,0 l/m 0,7 km/h N 10,3 C 13,5 C 5,2 km/h
12.10.2013 21:00 11,8 C 83 % 1018,2 hPa 0,0 l/m 0,1 km/h N 8,9 C 11,8 C 1,6 km/h
12.10.2013 22:00 11,4 C 83 % 1017,8 hPa 0,0 l/m 1,5 km/h N 8,7 C 11,4 C 6,8 km/h
12.10.2013 23:00 11,4 C 84 % 1017,3 hPa 0,0 l/m 2,1 km/h N 8,7 C 11,4 C 9,6 km/h
13.10.2013 00:00 11,0 C 84 % 1017,0 hPa 0,0 l/m 2,7 km/h N 8,4 C 11,0 C 8,0 km/h
13.10.2013 01:00 10,5 C 84 % 1016,8 hPa 0,0 l/m 1,8 km/h N 7,9 C 10,5 C 7,6 km/h
13.10.2013 02:00 9,7 C 84 % 1016,8 hPa 0,0 l/m 0,5 km/h N 7,1 C 9,7 C 4,4 km/h
13.10.2013 03:00 8,3 C 84 % 1016,7 hPa 0,0 l/m 0,1 km/h N 5,7 C 8,3 C 0,8 km/h
13.10.2013 04:00 7,9 C 83 % 1017,0 hPa 0,0 l/m 0,3 km/h N 5,2 C 7,9 C 3,6 km/h
13.10.2013 05:00 7,0 C 83 % 1017,3 hPa 0,3 l/m 0,2 km/h N 4,3 C 7,0 C 2,4 km/h
13.10.2013 06:00 6,2 C 83 % 1017,6 hPa 0,0 l/m 0,3 km/h N 3,5 C 6,2 C 2,8 km/h
13.10.2013 07:00 5,8 C 82 % 1018,3 hPa 0,0 l/m 0,5 km/h N 3,0 C 5,8 C 4,4 km/h
13.10.2013 08:00 7,4 C 81 % 1019,8 hPa 0,0 l/m 5,6 km/h N 4,3 C 7,0 C 19,3 km/h
13.10.2013 09:00 9,5 C 80 % 1020,6 hPa 0,0 l/m 12,4 km/h N 6,1 C 5,8 C 30,2 km/h
13.10.2013 10:00 10,1 C 75 % 1021,5 hPa 0,0 l/m 12,7 km/h N 5,9 C 6,3 C 32,2 km/h
13.10.2013 11:00 10,8 C 72 % 1022,1 hPa 0,0 l/m 11,3 km/h N 5,9 C 7,9 C 30,6 km/h
13.10.2013 12:00 12,0 C 70 % 1022,1 hPa 0,0 l/m 8,4 km/h N 6,6 C 10,8 C 21,3 km/h
13.10.2013 13:00 13,3 C 68 % 1021,9 hPa 0,0 l/m 6,6 km/h N 7,4 C 13,1 C 18,1 km/h
13.10.2013 14:00 13,9 C 61 % 1021,5 hPa 0,0 l/m 5,1 km/h N 6,6 C 13,9 C 16,5 km/h
13.10.2013 15:00 14,4 C 60 % 1021,1 hPa 0,0 l/m 1,6 km/h N 6,6 C 14,4 C 8,1 km/h
13.10.2013 16:00 14,8 C 59 % 1021,2 hPa 0,0 l/m 0,3 km/h N 6,8 C 14,8 C 3,6 km/h
13.10.2013 17:00 14,2 C 63 % 1021,4 hPa 0,0 l/m 0,0 km/h N 7,1 C 14,2 C 0,8 km/h
13.10.2013 18:00 12,0 C 70 % 1021,9 hPa 0,0 l/m 0,0 km/h N 6,7 C 12,0 C 0,0 km/h
13.10.2013 19:00 9,4 C 78 % 1022,5 hPa 0,0 l/m 0,0 km/h N 5,7 C 9,4 C 0,0 km/h
13.10.2013 20:00 7,8 C 82 % 1022,5 hPa 0,0 l/m 0,0 km/h N 5,0 C 7,8 C 0,0 km/h
13.10.2013 21:00 7,2 C 84 % 1022,7 hPa 0,0 l/m 0,0 km/h N 4,6 C 7,2 C 0,8 km/h
13.10.2013 22:00 6,7 C 84 % 1022,5 hPa 0,0 l/m 0,0 km/h N 4,2 C 6,7 C 0,0 km/h
13.10.2013 23:00 6,1 C 84 % 1022,6 hPa 0,0 l/m 0,0 km/h N 3,6 C 6,1 C 0,0 km/h
Min-Datum _ 08.10.13 08.10.13 10.10.13 - 07.10.13 - 08.10.13 08.10.13 07.10.13
_ Min-Zeit 02:30 13:15 18:15 - 00:00 - 04:00 02:30 00:15
Minimum _ 4,2 C 46 % 1005,9 hPa - 0,0 km/h - 1,4 C 4,2 C 0,0 km/h
Max-Datum _ 08.10.13 07.10.13 07.10.13 10.10.13 13.10.13 - 10.10.13 08.10.13 13.10.13
_ Max-Zeit 13:15 22:00 11:00 21:45 10:30 - 13:30 14:15 10:30
Maximum _ 18,7 C 85 % 1028,3 hPa 4,2 l/m 14,1 km/h
N
- 12,8 C 18,6 C 35,4 km/h
N
Durchschnitt _ 11,1 C 79 % 1019,1 hPa #18,7 l/m 1,9 km/h N 7,4 C 10,9 C 6,6 km/h